JNX weather

Public forecast

Using degrees Fahrenheit for public forecast. Weather courtesy of forecast.io.

Current aviation weather report (METAR) for Johnston County Airport

Retrieved 2020/08/14 05:15 UTC (0 seconds ago):

KJNX 140515Z AUTO 00000KT 10SM CLR 24/24 A2996 RMK AO2

Closest aviation forecast (TAF) to Johnston County Airport

Closest forecast is Seymour Johnson Air Force Base, 24.3 nm (44.9 km) ESE. Retrieved 2020-08-14 04:07 UTC (58 minutes ago):

TAF KGSB 140400Z 1404/1510 25006KT 9999 FEW005 SCT009 BKN013 QNH2992INS BECMG 1407/1408 35003KT 9999 BKN005 QNH2994INS BECMG 1414/1415 34006KT 9999 BKN015 QNH2986INS BECMG 1419/1420 33006KT 9000 -SHRA VCTS BKN040CB QNH2990INS TEMPO 1420/1424 8000 -TSRA BECMG 1502/1503 02003KT 9999 NSW BKN009 QNH2990INS TX32/1418Z TN23/1409Z